Time;durP1;ratioP1;P1;durP2;ratioP2;P2;SDS_P1;SDS_P2;PMS_P1;PMS_P2;Temp;Humidity;BMP_temperature;BMP_pressure;BME280_temperature;BME280_humidity;BME280_pressure;Samples;Min_cycle;Max_cycle;Signal;HPM_P1;HPM_P2
2023/11/20 00:00:26;;;;;;;6.85;2.20;;;;;;;;;;4975563;28;20130;-72
2023/11/20 00:03:00;;;;;;;7.00;2.22;;;;;;;;;;5009630;28;20068;-74
2023/11/20 00:05:35;;;;;;;2.75;1.55;;;;;;;;;;5014932;28;20034;-72
2023/11/20 00:08:02;;;;;;;6.72;1.70;;;;;;;;;;5016913;28;20026;-72
2023/11/20 00:10:32;;;;;;;4.68;2.10;;;;;;;;;;5016810;28;20200;-73
2023/11/20 00:12:59;;;;;;;4.80;2.05;;;;;;;;;;5034415;28;20032;-73
2023/11/20 00:15:31;;;;;;;9.27;1.70;;;;;;;;;;5020476;28;20032;-72
2023/11/20 00:18:00;;;;;;;5.90;2.70;;;;;;;;;;5020853;28;20061;-73
2023/11/20 00:20:37;;;;;;;5.43;1.77;;;;;;;;;;5023078;28;20033;-71
2023/11/20 00:23:05;;;;;;;8.55;2.03;;;;;;;;;;5021369;28;20116;-71
2023/11/20 00:25:34;;;;;;;9.43;1.95;;;;;;;;;;5020514;28;20025;-70
2023/11/20 00:28:03;;;;;;;3.65;1.50;;;;;;;;;;5017559;28;20508;-72
2023/11/20 00:30:30;;;;;;;4.95;1.40;;;;;;;;;;5015892;28;20057;-73
2023/11/20 00:33:00;;;;;;;3.00;1.50;;;;;;;;;;4998429;28;20026;-72
2023/11/20 00:35:27;;;;;;;6.55;1.90;;;;;;;;;;4997143;28;20375;-74
2023/11/20 00:38:13;;;;;;;8.77;1.40;;;;;;;;;;4995528;28;20108;-72
2023/11/20 00:40:41;;;;;;;8.70;2.08;;;;;;;;;;4990686;28;20049;-72
2023/11/20 00:43:16;;;;;;;5.88;1.90;;;;;;;;;;4996411;28;20042;-72
2023/11/20 00:45:44;;;;;;;3.28;1.15;;;;;;;;;;4997084;28;20025;-72
2023/11/20 00:48:37;;;;;;;;;;;;;;;;;;;;;
2023/11/20 00:51:08;;;;;;;3.72;1.27;;;;;;;;;;4996316;28;20127;-72
2023/11/20 00:53:58;;;;;;;;;;;;;;;;;;;;;
2023/11/20 00:56:30;;;;;;;6.35;1.60;;;;;;;;;;4995514;28;20030;-72
2023/11/20 00:58:56;;;;;;;5.63;1.70;;;;;;;;;;4995136;28;20026;-73
2023/11/20 01:01:29;;;;;;;10.68;1.75;;;;;;;;;;5006587;28;20121;-72
2023/11/20 01:03:56;;;;;;;5.85;1.10;;;;;;;;;;4995344;28;20458;-73
2023/11/20 01:06:36;;;;;;;6.18;1.65;;;;;;;;;;4995090;28;20073;-72
2023/11/20 01:09:07;;;;;;;5.05;1.50;;;;;;;;;;4995022;28;20062;-74
2023/11/20 01:11:39;;;;;;;4.35;1.20;;;;;;;;;;4993740;28;20022;-72
2023/11/20 01:14:08;;;;;;;8.52;1.95;;;;;;;;;;4993239;28;20053;-73
2023/11/20 01:16:43;;;;;;;6.55;1.35;;;;;;;;;;4995000;28;20081;-73
2023/11/20 01:19:16;;;;;;;8.32;1.73;;;;;;;;;;4995116;28;20053;-72
2023/11/20 01:21:49;;;;;;;4.38;1.30;;;;;;;;;;4993612;28;20037;-73
2023/11/20 01:24:19;;;;;;;6.72;1.77;;;;;;;;;;4993277;28;20081;-74
2023/11/20 01:26:49;;;;;;;6.78;1.33;;;;;;;;;;5009218;28;20399;-72
2023/11/20 01:29:15;;;;;;;8.03;1.53;;;;;;;;;;5009383;28;20030;-74
2023/11/20 01:31:44;;;;;;;2.22;0.88;;;;;;;;;;4993080;28;20318;-72
2023/11/20 01:34:13;;;;;;;6.13;1.42;;;;;;;;;;4992130;28;20502;-72
2023/11/20 01:36:42;;;;;;;7.47;1.38;;;;;;;;;;4994030;28;20038;-72
2023/11/20 01:39:13;;;;;;;7.57;1.60;;;;;;;;;;4992640;28;20512;-71
2023/11/20 01:41:41;;;;;;;5.38;1.50;;;;;;;;;;4994587;28;20042;-72
2023/11/20 01:44:13;;;;;;;8.05;1.35;;;;;;;;;;4993823;28;20042;-72
2023/11/20 01:46:43;;;;;;;3.47;1.08;;;;;;;;;;5009242;28;20033;-74
2023/11/20 01:49:20;;;;;;;4.68;1.42;;;;;;;;;;4992528;28;20060;-72
2023/11/20 01:51:52;;;;;;;6.00;1.52;;;;;;;;;;4994354;28;20034;-73
2023/11/20 01:54:32;;;;;;;5.63;1.38;;;;;;;;;;4998365;28;20022;-73
2023/11/20 01:57:02;;;;;;;5.97;1.33;;;;;;;;;;4997456;28;20042;-73
2023/11/20 01:59:29;;;;;;;5.95;1.30;;;;;;;;;;4997732;28;20041;-73
2023/11/20 02:02:12;;;;;;;8.75;1.50;;;;;;;;;;4996379;28;20042;-73
2023/11/20 02:07:40;;;;;;;7.63;1.30;;;;;;;;;;4986760;28;20222;-71
2023/11/20 02:10:17;;;;;;;8.07;2.40;;;;;;;;;;4976873;28;20084;-72
2023/11/20 02:12:54;;;;;;;5.03;1.05;;;;;;;;;;5004404;28;20340;-72
2023/11/20 02:15:21;;;;;;;8.45;2.08;;;;;;;;;;5028116;28;20104;-71
2023/11/20 02:17:47;;;;;;;12.13;2.10;;;;;;;;;;4998565;28;20037;-74
2023/11/20 02:20:29;;;;;;;4.47;1.55;;;;;;;;;;5010581;28;20037;-73
2023/11/20 02:22:55;;;;;;;10.95;1.48;;;;;;;;;;5010061;28;20033;-71
2023/11/20 02:25:28;;;;;;;3.17;1.10;;;;;;;;;;4992959;28;20121;-76
2023/11/20 02:28:21;;;;;;;8.30;1.50;;;;;;;;;;4994568;28;20453;-72
2023/11/20 02:30:47;;;;;;;6.53;1.65;;;;;;;;;;5009069;28;20495;-73
2023/11/20 02:33:39;;;;;;;9.40;1.88;;;;;;;;;;4993259;28;20308;-72
2023/11/20 02:36:12;;;;;;;5.07;1.23;;;;;;;;;;4996010;28;20053;-72
2023/11/20 02:38:50;;;;;;;6.30;1.77;;;;;;;;;;5011154;28;20475;-73
2023/11/20 02:41:20;;;;;;;4.20;1.23;;;;;;;;;;5012631;28;20033;-71
2023/11/20 02:43:47;;;;;;;5.32;1.55;;;;;;;;;;5005513;28;20067;-71
2023/11/20 02:46:13;;;;;;;2.28;1.02;;;;;;;;;;5026699;28;20037;-72
2023/11/20 02:48:45;;;;;;;9.48;2.40;;;;;;;;;;5006897;28;20443;-73
2023/11/20 02:51:11;;;;;;;8.02;1.58;;;;;;;;;;4998407;28;20030;-72
2023/11/20 02:53:38;;;;;;;6.03;1.45;;;;;;;;;;4998917;28;20026;-74
2023/11/20 02:56:23;;;;;;;7.70;1.58;;;;;;;;;;4995673;28;20549;-72
2023/11/20 02:59:37;;;;;;;4.55;1.30;;;;;;;;;;4958657;28;20536;-72
2023/11/20 03:02:08;;;;;;;3.10;1.02;;;;;;;;;;4932706;29;20083;-72
2023/11/20 03:04:34;;;;;;;6.43;1.70;;;;;;;;;;4969550;28;20041;-72
2023/11/20 03:07:06;;;;;;;7.47;1.92;;;;;;;;;;4971583;28;20460;-72
2023/11/20 03:09:38;;;;;;;7.47;1.50;;;;;;;;;;4972206;28;20446;-73
2023/11/20 03:12:05;;;;;;;3.13;1.52;;;;;;;;;;4972744;28;20113;-73
2023/11/20 03:14:34;;;;;;;7.93;1.73;;;;;;;;;;4972902;28;20411;-74
2023/11/20 03:17:08;;;;;;;6.90;1.65;;;;;;;;;;4978496;28;20034;-73
2023/11/20 03:19:40;;;;;;;5.00;1.42;;;;;;;;;;4975652;28;20030;-73
2023/11/20 03:22:11;;;;;;;5.35;1.10;;;;;;;;;;4990632;28;20101;-73
2023/11/20 03:24:37;;;;;;;14.80;1.88;;;;;;;;;;4976212;28;20026;-73
2023/11/20 03:27:18;;;;;;;5.18;1.45;;;;;;;;;;4993842;28;20068;-72
2023/11/20 03:29:47;;;;;;;7.67;1.87;;;;;;;;;;4994900;28;20490;-72
2023/11/20 03:32:13;;;;;;;7.70;1.80;;;;;;;;;;4976314;28;20053;-72
2023/11/20 03:34:40;;;;;;;7.50;1.80;;;;;;;;;;5026962;28;20402;-72
2023/11/20 03:37:10;;;;;;;7.30;2.83;;;;;;;;;;5015487;28;20038;-73
2023/11/20 03:39:52;;;;;;;3.90;1.48;;;;;;;;;;5015142;28;20528;-72
2023/11/20 03:42:40;;;;;;;6.80;1.45;;;;;;;;;;5015422;28;20034;-72
2023/11/20 03:45:09;;;;;;;7.47;1.65;;;;;;;;;;5015507;28;20038;-71
2023/11/20 03:47:46;;;;;;;16.33;1.88;;;;;;;;;;4996739;28;20034;-72
2023/11/20 03:50:15;;;;;;;5.63;1.70;;;;;;;;;;5012238;28;20085;-72
2023/11/20 03:52:46;;;;;;;11.32;1.33;;;;;;;;;;4996731;28;20481;-74
2023/11/20 03:55:17;;;;;;;11.07;1.80;;;;;;;;;;4994890;28;20033;-72
2023/11/20 03:57:46;;;;;;;6.97;1.25;;;;;;;;;;4996541;28;20034;-73
2023/11/20 04:00:14;;;;;;;9.10;1.95;;;;;;;;;;4995591;28;20034;-73
2023/11/20 04:02:42;;;;;;;4.40;1.63;;;;;;;;;;5014527;28;20030;-73
2023/11/20 04:05:10;;;;;;;11.35;1.88;;;;;;;;;;5015148;28;20109;-73
2023/11/20 04:07:38;;;;;;;10.70;1.60;;;;;;;;;;4999372;28;20121;-74
2023/11/20 04:10:08;;;;;;;6.65;1.45;;;;;;;;;;5014270;28;20046;-74
2023/11/20 04:12:43;;;;;;;5.45;1.58;;;;;;;;;;5015255;28;20696;-73
2023/11/20 04:15:12;;;;;;;5.00;1.17;;;;;;;;;;4998940;28;20031;-73
2023/11/20 04:17:43;;;;;;;10.05;1.75;;;;;;;;;;4995154;28;20037;-73
2023/11/20 04:20:09;;;;;;;6.40;1.58;;;;;;;;;;4996687;28;20087;-70
2023/11/20 04:22:48;;;;;;;7.15;2.00;;;;;;;;;;5012297;28;20090;-72
2023/11/20 04:25:26;;;;;;;7.40;1.45;;;;;;;;;;4996538;28;20022;-72
2023/11/20 04:28:16;;;;;;;3.80;1.42;;;;;;;;;;4996907;28;20034;-73
2023/11/20 04:30:45;;;;;;;6.40;1.50;;;;;;;;;;5015780;28;20423;-72
2023/11/20 04:33:16;;;;;;;10.40;1.73;;;;;;;;;;5013293;28;20057;-74
2023/11/20 04:35:50;;;;;;;10.95;2.30;;;;;;;;;;5014299;28;20029;-72
2023/11/20 04:38:16;;;;;;;10.95;3.28;;;;;;;;;;5014143;28;20034;-72
2023/11/20 04:40:48;;;;;;;7.70;1.50;;;;;;;;;;5016090;28;20474;-73
2023/11/20 04:43:15;;;;;;;4.18;1.20;;;;;;;;;;5015358;28;20026;-73
2023/11/20 04:45:40;;;;;;;5.32;1.55;;;;;;;;;;5016114;28;20028;-73
2023/11/20 04:48:08;;;;;;;6.20;1.27;;;;;;;;;;5017158;28;20103;-73
2023/11/20 04:50:39;;;;;;;3.42;1.52;;;;;;;;;;5015141;28;20036;-73
2023/11/20 04:53:07;;;;;;;7.00;1.73;;;;;;;;;;5013670;28;20026;-74
2023/11/20 04:55:33;;;;;;;4.90;1.30;;;;;;;;;;5015199;28;20466;-72
2023/11/20 04:58:00;;;;;;;8.55;1.30;;;;;;;;;;5015695;28;20032;-73
2023/11/20 05:00:27;;;;;;;10.63;1.45;;;;;;;;;;5017189;28;20041;-76
2023/11/20 05:02:53;;;;;;;7.13;3.47;;;;;;;;;;4998330;28;20549;-73
2023/11/20 05:05:19;;;;;;;8.82;1.40;;;;;;;;;;4997963;28;20117;-73
2023/11/20 05:07:46;;;;;;;10.38;1.60;;;;;;;;;;4996169;28;20342;-72
2023/11/20 05:10:17;;;;;;;13.73;2.08;;;;;;;;;;4996544;28;20157;-72
2023/11/20 05:12:51;;;;;;;12.00;2.75;;;;;;;;;;5009045;28;20476;-74
2023/11/20 05:15:38;;;;;;;8.05;1.65;;;;;;;;;;5014060;28;20057;-73
2023/11/20 05:18:10;;;;;;;6.28;1.80;;;;;;;;;;5013887;28;20114;-71
2023/11/20 05:20:37;;;;;;;9.20;1.70;;;;;;;;;;5013782;28;20107;-74
2023/11/20 05:23:08;;;;;;;8.07;1.75;;;;;;;;;;5014068;28;20131;-74
2023/11/20 05:25:38;;;;;;;4.05;1.10;;;;;;;;;;5029287;28;20145;-73
2023/11/20 05:28:09;;;;;;;7.13;1.38;;;;;;;;;;5016134;28;20037;-72
2023/11/20 05:30:42;;;;;;;11.25;1.63;;;;;;;;;;5017816;28;20087;-73
2023/11/20 05:33:11;;;;;;;10.68;1.98;;;;;;;;;;5013867;28;20025;-72
2023/11/20 05:35:39;;;;;;;5.82;1.35;;;;;;;;;;5014578;28;20097;-74
2023/11/20 05:38:11;;;;;;;15.20;1.67;;;;;;;;;;5013320;28;20156;-73
2023/11/20 05:40:43;;;;;;;7.90;1.77;;;;;;;;;;5008405;28;20724;-74
2023/11/20 05:43:09;;;;;;;9.35;2.80;;;;;;;;;;5007067;28;20030;-74
2023/11/20 05:45:42;;;;;;;7.07;1.50;;;;;;;;;;5008380;28;20030;-70
2023/11/20 05:48:20;;;;;;;7.53;1.30;;;;;;;;;;5010205;28;20095;-71
2023/11/20 05:50:54;;;;;;;10.95;2.10;;;;;;;;;;5007053;28;20584;-72
2023/11/20 05:53:23;;;;;;;7.40;1.60;;;;;;;;;;5011509;28;20033;-74
2023/11/20 05:55:55;;;;;;;8.82;1.90;;;;;;;;;;4993059;28;20036;-74
2023/11/20 05:58:22;;;;;;;11.50;2.15;;;;;;;;;;5010997;28;20099;-72
2023/11/20 06:00:53;;;;;;;3.35;1.23;;;;;;;;;;5007248;28;20031;-75
2023/11/20 06:03:21;;;;;;;7.15;1.13;;;;;;;;;;5002815;28;20448;-76
2023/11/20 06:05:51;;;;;;;8.85;1.48;;;;;;;;;;5023095;28;20033;-71
2023/11/20 06:08:17;;;;;;;6.78;1.45;;;;;;;;;;4993627;28;20478;-71
2023/11/20 06:10:44;;;;;;;9.27;1.65;;;;;;;;;;4993463;28;20061;-75
2023/11/20 06:13:10;;;;;;;11.32;1.65;;;;;;;;;;4992773;28;20479;-72
2023/11/20 06:15:39;;;;;;;7.20;1.88;;;;;;;;;;4993979;28;20029;-73
2023/11/20 06:18:12;;;;;;;3.45;1.58;;;;;;;;;;4993380;28;20056;-74
2023/11/20 06:20:38;;;;;;;13.45;5.60;;;;;;;;;;4996454;28;20026;-72
2023/11/20 06:23:08;;;;;;;8.05;1.67;;;;;;;;;;5002962;28;20041;-71
2023/11/20 06:25:34;;;;;;;6.68;1.30;;;;;;;;;;5010539;28;20474;-72
2023/11/20 06:28:00;;;;;;;10.27;1.38;;;;;;;;;;5028090;28;20030;-69
2023/11/20 06:30:31;;;;;;;4.68;1.20;;;;;;;;;;5003274;28;20033;-71
2023/11/20 06:33:11;;;;;;;5.72;1.23;;;;;;;;;;5005331;28;20668;-71
2023/11/20 06:35:44;;;;;;;13.52;1.90;;;;;;;;;;5006196;28;20026;-73
2023/11/20 06:38:12;;;;;;;6.53;1.73;;;;;;;;;;5014033;28;20033;-74
2023/11/20 06:41:07;;;;;;;7.15;1.55;;;;;;;;;;5007861;28;20048;-70
2023/11/20 06:43:33;;;;;;;6.38;1.80;;;;;;;;;;5009224;28;20037;-73
2023/11/20 06:46:27;;;;;;;5.15;1.55;;;;;;;;;;5014097;28;20080;-73
2023/11/20 06:48:55;;;;;;;9.98;1.65;;;;;;;;;;4998801;28;20040;-73
2023/11/20 06:51:44;;;;;;;5.43;1.70;;;;;;;;;;5005697;28;20061;-73
2023/11/20 06:54:11;;;;;;;7.50;1.17;;;;;;;;;;5012118;28;20037;-72
2023/11/20 06:56:40;;;;;;;9.30;1.33;;;;;;;;;;5022985;28;20095;-74
2023/11/20 06:59:06;;;;;;;5.90;1.38;;;;;;;;;;5011724;28;20033;-69
2023/11/20 07:01:32;;;;;;;9.23;1.83;;;;;;;;;;5004440;28;20374;-73
2023/11/20 07:03:59;;;;;;;9.38;1.05;;;;;;;;;;5006904;28;20025;-71
2023/11/20 07:06:25;;;;;;;6.32;1.50;;;;;;;;;;5003250;28;20041;-73
2023/11/20 07:08:54;;;;;;;6.85;1.38;;;;;;;;;;5000140;28;20099;-72
2023/11/20 07:11:20;;;;;;;6.53;1.35;;;;;;;;;;4997452;28;20037;-77
2023/11/20 07:13:45;;;;;;;10.52;1.98;;;;;;;;;;5018630;28;20034;-73
2023/11/20 07:16:13;;;;;;;4.47;1.23;;;;;;;;;;4996161;28;20029;-76
2023/11/20 07:18:39;;;;;;;6.43;1.25;;;;;;;;;;5007218;28;20033;-74
2023/11/20 07:21:06;;;;;;;7.40;1.20;;;;;;;;;;4998152;28;20038;-72
2023/11/20 07:23:32;;;;;;;8.07;1.50;;;;;;;;;;5012106;28;20045;-74
2023/11/20 07:25:57;;;;;;;12.27;2.08;;;;;;;;;;5009445;28;20059;-70
2023/11/20 07:28:23;;;;;;;4.97;1.65;;;;;;;;;;5008904;28;20026;-74
2023/11/20 07:30:48;;;;;;;7.25;1.63;;;;;;;;;;5002436;28;20450;-71
2023/11/20 07:33:15;;;;;;;5.55;1.40;;;;;;;;;;5000203;28;20169;-71
2023/11/20 07:35:41;;;;;;;9.15;1.67;;;;;;;;;;4999129;28;20503;-73
2023/11/20 07:38:06;;;;;;;5.82;1.65;;;;;;;;;;4993731;28;20044;-72
2023/11/20 07:40:33;;;;;;;9.27;1.42;;;;;;;;;;5006302;28;20164;-75
2023/11/20 07:42:59;;;;;;;5.72;1.48;;;;;;;;;;5001140;28;20521;-74
2023/11/20 07:45:24;;;;;;;7.63;1.13;;;;;;;;;;4999913;28;20125;-72
2023/11/20 07:47:50;;;;;;;9.35;1.23;;;;;;;;;;4998919;28;20093;-70
2023/11/20 07:50:15;;;;;;;5.47;1.40;;;;;;;;;;5010910;28;20518;-70
2023/11/20 07:52:45;;;;;;;5.30;1.20;;;;;;;;;;4991049;28;20026;-73
2023/11/20 07:55:11;;;;;;;8.93;1.40;;;;;;;;;;5007540;28;20034;-74
2023/11/20 07:57:37;;;;;;;5.53;1.50;;;;;;;;;;4999161;28;20025;-75
2023/11/20 08:00:06;;;;;;;6.38;1.35;;;;;;;;;;4999854;28;20037;-72
2023/11/20 08:02:31;;;;;;;8.15;1.90;;;;;;;;;;5005349;28;20053;-76
2023/11/20 08:04:58;;;;;;;8.13;1.33;;;;;;;;;;4993099;28;20089;-72
2023/11/20 08:07:24;;;;;;;13.10;1.98;;;;;;;;;;5000623;28;20032;-73
2023/11/20 08:09:50;;;;;;;7.13;1.23;;;;;;;;;;4989122;28;20803;-74
2023/11/20 08:12:19;;;;;;;7.53;1.80;;;;;;;;;;4999291;28;20030;-72
2023/11/20 08:14:45;;;;;;;6.47;1.10;;;;;;;;;;4995546;28;20486;-72
2023/11/20 08:17:13;;;;;;;10.25;1.20;;;;;;;;;;4997835;28;20131;-72
2023/11/20 08:19:39;;;;;;;6.50;1.40;;;;;;;;;;4996044;28;20033;-72
2023/11/20 08:22:04;;;;;;;5.10;1.08;;;;;;;;;;4983464;28;20037;-69
2023/11/20 08:24:31;;;;;;;3.22;1.27;;;;;;;;;;5001329;28;20033;-72
2023/11/20 08:26:58;;;;;;;9.00;1.60;;;;;;;;;;4997463;28;20038;-73
2023/11/20 08:29:24;;;;;;;8.38;1.55;;;;;;;;;;5003694;28;20034;-75
2023/11/20 08:31:51;;;;;;;7.68;1.17;;;;;;;;;;4999377;28;20029;-73
2023/11/20 08:34:16;;;;;;;7.32;1.20;;;;;;;;;;5004908;28;20041;-73
2023/11/20 08:36:46;;;;;;;4.70;1.30;;;;;;;;;;4991340;28;20041;-72
2023/11/20 08:39:14;;;;;;;9.13;1.55;;;;;;;;;;4989193;28;20513;-71
2023/11/20 08:41:41;;;;;;;4.13;1.35;;;;;;;;;;4996902;28;20064;-72
2023/11/20 08:44:16;;;;;;;7.35;1.33;;;;;;;;;;4999382;28;20509;-73
2023/11/20 08:46:45;;;;;;;5.32;1.52;;;;;;;;;;5002325;28;20100;-72
2023/11/20 08:49:11;;;;;;;4.28;1.42;;;;;;;;;;5004840;28;20038;-71
2023/11/20 08:51:37;;;;;;;3.97;1.50;;;;;;;;;;5005727;28;20375;-70
2023/11/20 08:54:02;;;;;;;6.57;1.50;;;;;;;;;;5000877;28;20061;-73
2023/11/20 08:56:28;;;;;;;4.82;1.27;;;;;;;;;;5002199;28;20135;-73
2023/11/20 08:58:54;;;;;;;5.53;1.25;;;;;;;;;;4998819;28;20869;-72
2023/11/20 09:01:37;;;;;;;1.58;1.05;;;;;;;;;;4992940;28;20026;-72
2023/11/20 09:04:04;;;;;;;5.03;1.50;;;;;;;;;;4997158;28;20026;-73
2023/11/20 09:06:31;;;;;;;5.18;1.20;;;;;;;;;;5021004;28;20812;-72
2023/11/20 09:08:57;;;;;;;6.32;1.58;;;;;;;;;;4996958;28;20044;-73
2023/11/20 09:11:23;;;;;;;6.18;1.30;;;;;;;;;;4999200;28;20497;-72
2023/11/20 09:13:52;;;;;;;2.33;0.95;;;;;;;;;;5000716;28;20109;-72
2023/11/20 09:16:28;;;;;;;5.35;1.48;;;;;;;;;;4995826;28;20076;-73
2023/11/20 09:18:55;;;;;;;6.18;1.05;;;;;;;;;;5001377;28;20535;-73
2023/11/20 09:21:22;;;;;;;4.43;0.95;;;;;;;;;;5001215;28;20477;-73
2023/11/20 09:23:48;;;;;;;2.92;0.88;;;;;;;;;;5001470;28;20153;-74
2023/11/20 09:26:14;;;;;;;5.68;1.05;;;;;;;;;;5002725;28;20113;-73
2023/11/20 09:28:40;;;;;;;4.82;1.25;;;;;;;;;;5000421;28;20092;-74
2023/11/20 09:31:24;;;;;;;7.95;1.02;;;;;;;;;;5005745;28;20072;-74
2023/11/20 09:33:50;;;;;;;5.60;1.60;;;;;;;;;;4990394;28;20410;-72
2023/11/20 09:36:16;;;;;;;5.55;1.38;;;;;;;;;;5008416;28;20540;-72
2023/11/20 09:38:43;;;;;;;5.15;1.42;;;;;;;;;;5002291;28;20058;-72
2023/11/20 09:41:10;;;;;;;5.20;1.10;;;;;;;;;;5001133;28;20619;-76
2023/11/20 09:43:37;;;;;;;3.55;1.20;;;;;;;;;;5005199;28;20064;-73
2023/11/20 09:46:14;;;;;;;4.25;1.02;;;;;;;;;;5002223;28;20041;-74
2023/11/20 09:48:47;;;;;;;3.70;1.20;;;;;;;;;;5000912;28;20111;-75
2023/11/20 09:51:17;;;;;;;6.97;1.58;;;;;;;;;;4994692;28;20045;-72
2023/11/20 09:53:43;;;;;;;2.35;1.17;;;;;;;;;;4998991;28;20038;-71
2023/11/20 09:56:12;;;;;;;4.72;1.30;;;;;;;;;;4995846;28;20473;-71
2023/11/20 09:58:40;;;;;;;6.85;2.65;;;;;;;;;;4999457;28;20049;-74
2023/11/20 10:01:09;;;;;;;3.35;1.00;;;;;;;;;;5003627;28;20052;-72
2023/11/20 10:03:39;;;;;;;2.53;0.90;;;;;;;;;;5007932;28;20029;-73
2023/11/20 10:06:13;;;;;;;5.43;1.13;;;;;;;;;;4993766;28;20067;-73
2023/11/20 10:08:43;;;;;;;4.75;1.20;;;;;;;;;;5017114;28;20045;-74
2023/11/20 10:11:22;;;;;;;4.65;1.50;;;;;;;;;;5005022;28;20141;-73
2023/11/20 10:13:51;;;;;;;4.25;1.15;;;;;;;;;;4993259;28;20060;-72
2023/11/20 10:16:32;;;;;;;8.25;1.45;;;;;;;;;;5003541;28;20049;-71
2023/11/20 10:19:14;;;;;;;10.55;1.45;;;;;;;;;;5009520;28;20030;-72
2023/11/20 10:21:46;;;;;;;4.97;1.05;;;;;;;;;;5010578;28;20312;-74
2023/11/20 10:24:15;;;;;;;3.50;1.13;;;;;;;;;;5020428;28;20129;-72
2023/11/20 10:26:42;;;;;;;2.63;1.20;;;;;;;;;;5005054;28;20642;-70
2023/11/20 10:29:10;;;;;;;5.05;1.55;;;;;;;;;;5016400;28;20861;-71
2023/11/20 10:31:44;;;;;;;7.75;2.25;;;;;;;;;;5016289;28;20504;-70
2023/11/20 10:34:10;;;;;;;4.07;0.93;;;;;;;;;;5025582;28;20030;-71
2023/11/20 10:36:41;;;;;;;5.25;1.00;;;;;;;;;;5004670;28;20479;-72
2023/11/20 10:39:12;;;;;;;5.43;1.20;;;;;;;;;;5008172;28;20477;-70
2023/11/20 10:41:43;;;;;;;8.80;1.05;;;;;;;;;;5007270;28;20038;-72
2023/11/20 10:44:12;;;;;;;1.33;0.77;;;;;;;;;;5006726;28;20343;-73
2023/11/20 10:46:48;;;;;;;5.75;1.05;;;;;;;;;;5006919;28;20026;-74
2023/11/20 10:49:20;;;;;;;4.13;0.77;;;;;;;;;;5004503;28;20449;-75
2023/11/20 10:51:57;;;;;;;3.10;1.00;;;;;;;;;;5005217;28;20029;-74
2023/11/20 10:54:32;;;;;;;4.03;0.93;;;;;;;;;;5025286;28;20034;-74
2023/11/20 10:57:21;;;;;;;2.70;0.77;;;;;;;;;;5017224;28;20610;-74
2023/11/20 10:59:52;;;;;;;1.73;0.77;;;;;;;;;;5022518;28;20028;-74
2023/11/20 11:02:22;;;;;;;4.35;0.98;;;;;;;;;;5013311;28;20092;-73
2023/11/20 11:04:52;;;;;;;4.32;0.80;;;;;;;;;;5011616;28;20042;-74
2023/11/20 11:07:25;;;;;;;3.55;1.02;;;;;;;;;;5019398;28;20029;-74
2023/11/20 11:10:04;;;;;;;5.60;1.20;;;;;;;;;;5007809;28;20042;-73
2023/11/20 11:12:35;;;;;;;4.95;1.25;;;;;;;;;;5010284;28;20498;-74
2023/11/20 11:15:03;;;;;;;3.03;0.90;;;;;;;;;;5013404;28;20065;-75
2023/11/20 11:17:37;;;;;;;4.88;1.02;;;;;;;;;;5016824;28;20034;-75
2023/11/20 11:20:13;;;;;;;1.70;0.60;;;;;;;;;;5010740;28;20029;-74
2023/11/20 11:22:43;;;;;;;4.13;0.80;;;;;;;;;;5013936;28;20032;-72
2023/11/20 11:25:10;;;;;;;3.55;0.90;;;;;;;;;;5008411;28;20057;-74
2023/11/20 11:27:55;;;;;;;2.75;1.30;;;;;;;;;;5010211;28;20033;-73
2023/11/20 11:30:24;;;;;;;5.20;1.05;;;;;;;;;;5028699;28;20037;-74
2023/11/20 11:33:09;;;;;;;2.00;0.93;;;;;;;;;;5027191;28;20112;-74
2023/11/20 11:35:56;;;;;;;1.35;0.77;;;;;;;;;;5014361;28;20034;-73
2023/11/20 11:38:36;;;;;;;9.85;1.58;;;;;;;;;;5023501;28;20022;-75
2023/11/20 11:41:13;;;;;;;1.73;0.80;;;;;;;;;;5018133;28;20026;-74
2023/11/20 11:44:05;;;;;;;2.00;0.80;;;;;;;;;;5010689;28;20305;-72
2023/11/20 11:46:36;;;;;;;1.88;0.75;;;;;;;;;;5008251;28;20386;-75
2023/11/20 11:49:19;;;;;;;2.73;0.80;;;;;;;;;;5009934;28;20030;-74
2023/11/20 11:51:48;;;;;;;5.32;1.10;;;;;;;;;;5008077;28;20287;-71
2023/11/20 11:54:19;;;;;;;1.55;0.70;;;;;;;;;;5008209;28;20069;-77
2023/11/20 11:57:09;;;;;;;4.45;0.75;;;;;;;;;;5011783;28;20037;-71
2023/11/20 11:59:45;;;;;;;4.55;0.93;;;;;;;;;;5014377;28;20299;-74
2023/11/20 12:02:18;;;;;;;4.63;1.02;;;;;;;;;;5018612;28;20491;-72
2023/11/20 12:04:49;;;;;;;1.50;0.90;;;;;;;;;;5011531;28;20033;-73
2023/11/20 12:07:16;;;;;;;;;;;;;;;;;;5013115;28;20029;-72
2023/11/20 12:09:55;;;;;;;4.13;1.05;;;;;;;;;;5021899;28;19913;-69
2023/11/20 12:15:31;;;;;;;3.33;0.90;;;;;;;;;;5002486;28;20052;-73
2023/11/20 12:18:02;;;;;;;3.60;1.05;;;;;;;;;;5003240;28;20033;-72
2023/11/20 12:20:32;;;;;;;2.30;0.68;;;;;;;;;;5000212;28;20029;-72
2023/11/20 12:23:06;;;;;;;5.85;1.40;;;;;;;;;;5000269;28;20056;-73
2023/11/20 12:25:35;;;;;;;5.22;1.15;;;;;;;;;;4997818;28;20061;-72
2023/11/20 12:28:12;;;;;;;5.20;1.00;;;;;;;;;;5016088;28;20026;-72
2023/11/20 12:30:37;;;;;;;3.97;0.90;;;;;;;;;;5017258;28;20691;-73
2023/11/20 12:33:04;;;;;;;6.72;0.80;;;;;;;;;;5011092;28;20100;-74
2023/11/20 12:35:36;;;;;;;3.45;0.90;;;;;;;;;;5007357;28;20052;-75
2023/11/20 12:38:02;;;;;;;;;;;;;;;;;;5006083;28;20041;-72
2023/11/20 12:40:29;;;;;;;4.07;1.08;;;;;;;;;;5009460;28;19913;-74
2023/11/20 12:42:55;;;;;;;3.67;0.90;;;;;;;;;;5008618;28;20128;-73
2023/11/20 12:45:21;;;;;;;2.30;0.85;;;;;;;;;;5010303;28;20124;-73
2023/11/20 12:47:47;;;;;;;5.38;1.08;;;;;;;;;;5003175;28;20041;-73
2023/11/20 12:50:14;;;;;;;7.35;1.27;;;;;;;;;;5007778;28;20033;-74
2023/11/20 12:52:42;;;;;;;2.92;0.73;;;;;;;;;;5005848;28;20087;-72
2023/11/20 12:55:10;;;;;;;3.50;1.17;;;;;;;;;;5002498;28;20041;-71
2023/11/20 12:57:41;;;;;;;4.20;0.80;;;;;;;;;;5000194;28;20038;-71
2023/11/20 13:00:12;;;;;;;3.65;0.82;;;;;;;;;;5015261;28;20029;-73
2023/11/20 13:02:42;;;;;;;1.08;0.63;;;;;;;;;;5007529;28;20107;-71
2023/11/20 13:05:15;;;;;;;3.78;1.08;;;;;;;;;;5002324;28;20487;-74
2023/11/20 13:07:41;;;;;;;2.30;0.93;;;;;;;;;;5014275;28;20049;-76
2023/11/20 13:10:20;;;;;;;2.60;0.52;;;;;;;;;;5009155;28;20014;-73
2023/11/20 13:12:47;;;;;;;2.80;0.77;;;;;;;;;;5018496;28;20498;-71
2023/11/20 13:15:20;;;;;;;3.17;0.85;;;;;;;;;;5011919;28;20676;-72
2023/11/20 13:17:47;;;;;;;3.30;1.00;;;;;;;;;;5011621;28;20029;-74
2023/11/20 13:20:48;;;;;;;5.15;1.88;;;;;;;;;;5018358;28;20040;-72
2023/11/20 13:23:29;;;;;;;1.77;0.80;;;;;;;;;;5012846;28;20033;-74
2023/11/20 13:26:12;;;;;;;2.28;0.60;;;;;;;;;;5014520;28;20021;-74
2023/11/20 13:28:49;;;;;;;3.00;0.73;;;;;;;;;;5028431;28;20026;-73
2023/11/20 13:31:26;;;;;;;2.55;0.35;;;;;;;;;;5027129;28;21610;-74
2023/11/20 13:33:52;;;;;;;2.45;0.57;;;;;;;;;;5014788;28;20333;-73
2023/11/20 13:36:32;;;;;;;6.07;1.10;;;;;;;;;;5018594;28;20021;-72
2023/11/20 13:39:18;;;;;;;2.72;1.27;;;;;;;;;;5010889;28;20543;-70
2023/11/20 13:41:50;;;;;;;2.53;0.80;;;;;;;;;;5008691;28;20036;-73
2023/11/20 13:44:25;;;;;;;4.57;0.90;;;;;;;;;;5010300;28;20309;-73
2023/11/20 13:46:52;;;;;;;2.63;0.85;;;;;;;;;;5012395;28;20471;-74
2023/11/20 13:49:18;;;;;;;3.17;0.98;;;;;;;;;;5000134;28;20397;-72
2023/11/20 13:51:45;;;;;;;6.13;1.30;;;;;;;;;;5006566;28;20107;-70
2023/11/20 13:54:11;;;;;;;2.03;1.00;;;;;;;;;;5012270;28;20040;-73
2023/11/20 13:56:38;;;;;;;2.60;0.90;;;;;;;;;;5016851;28;20030;-73
2023/11/20 13:59:14;;;;;;;7.93;1.00;;;;;;;;;;5016940;28;20123;-73
2023/11/20 14:01:45;;;;;;;2.45;0.73;;;;;;;;;;5004637;28;20112;-72
2023/11/20 14:04:13;;;;;;;2.90;0.90;;;;;;;;;;5008210;28;20529;-72
2023/11/20 14:06:47;;;;;;;1.27;0.65;;;;;;;;;;5006754;28;20034;-73
2023/11/20 14:09:13;;;;;;;4.97;0.70;;;;;;;;;;5008014;28;20946;-73
2023/11/20 14:11:44;;;;;;;3.60;1.20;;;;;;;;;;5011123;28;20455;-72
2023/11/20 14:14:11;;;;;;;3.78;0.75;;;;;;;;;;5024567;28;20037;-72
2023/11/20 14:16:40;;;;;;;4.95;1.10;;;;;;;;;;5024852;28;20048;-74
2023/11/20 14:19:09;;;;;;;1.25;0.60;;;;;;;;;;5015073;28;20041;-73
2023/11/20 14:21:38;;;;;;;4.15;0.90;;;;;;;;;;5016279;28;20097;-75
2023/11/20 14:24:04;;;;;;;2.78;1.08;;;;;;;;;;5022101;28;20120;-73
2023/11/20 14:26:36;;;;;;;4.00;0.88;;;;;;;;;;5021672;28;20066;-72
2023/11/20 14:29:04;;;;;;;6.47;0.98;;;;;;;;;;5017218;28;20029;-73
2023/11/20 14:31:38;;;;;;;4.93;0.70;;;;;;;;;;5021615;28;20025;-72
2023/11/20 14:34:10;;;;;;;1.95;0.60;;;;;;;;;;5014801;28;20033;-74
2023/11/20 14:36:37;;;;;;;3.35;0.82;;;;;;;;;;5016730;28;20033;-75
2023/11/20 14:39:09;;;;;;;3.33;1.10;;;;;;;;;;5016259;28;20052;-73
2023/11/20 14:41:37;;;;;;;3.88;0.98;;;;;;;;;;5013734;28;20029;-72
2023/11/20 14:44:03;;;;;;;3.30;0.88;;;;;;;;;;5017170;28;20033;-73
2023/11/20 14:46:33;;;;;;;3.20;0.82;;;;;;;;;;5016837;28;20030;-75
2023/11/20 14:49:08;;;;;;;3.70;1.05;;;;;;;;;;5013879;28;20034;-75
2023/11/20 14:51:37;;;;;;;3.63;1.13;;;;;;;;;;5016352;28;20029;-74
2023/11/20 14:54:06;;;;;;;4.30;1.58;;;;;;;;;;5017265;28;20026;-72
2023/11/20 14:56:34;;;;;;;3.38;1.50;;;;;;;;;;5018446;28;20095;-75
2023/11/20 14:58:59;;;;;;;6.95;1.98;;;;;;;;;;5000002;28;20030;-74
2023/11/20 15:01:26;;;;;;;3.42;1.20;;;;;;;;;;5004910;28;20044;-75
2023/11/20 15:03:52;;;;;;;4.80;1.23;;;;;;;;;;5031332;28;20072;-74
2023/11/20 15:06:18;;;;;;;3.30;2.10;;;;;;;;;;5005062;28;20048;-70
2023/11/20 15:08:45;;;;;;;9.32;1.95;;;;;;;;;;5009183;28;20061;-72
2023/11/20 15:11:11;;;;;;;4.68;1.02;;;;;;;;;;5010979;28;20107;-74